sensor_id;sensor_type;location;lat;lon;timestamp;pressure;altitude;pressure_sealevel;temperature;humidity
83559;BME280;73527;47.882;7.718;2023-11-21T00:00:05;98028.28;;;11.92;69.75
83559;BME280;73527;47.882;7.718;2023-11-21T00:02:36;98024.75;;;11.98;70.95
83559;BME280;73527;47.882;7.718;2023-11-21T00:05:09;98021.28;;;11.71;71.34
83559;BME280;73527;47.882;7.718;2023-11-21T00:07:36;98011.31;;;11.59;72.19
83559;BME280;73527;47.882;7.718;2023-11-21T00:10:02;98012.78;;;11.61;71.93
83559;BME280;73527;47.882;7.718;2023-11-21T00:12:28;98010.88;;;11.48;72.80
83559;BME280;73527;47.882;7.718;2023-11-21T00:14:54;98003.22;;;11.32;73.12
83559;BME280;73527;47.882;7.718;2023-11-21T00:17:20;98006.97;;;11.25;73.68
83559;BME280;73527;47.882;7.718;2023-11-21T00:19:45;97985.72;;;11.49;72.74
83559;BME280;73527;47.882;7.718;2023-11-21T00:22:11;98004.28;;;11.25;73.44
83559;BME280;73527;47.882;7.718;2023-11-21T00:24:36;97992.91;;;11.36;73.48
83559;BME280;73527;47.882;7.718;2023-11-21T00:27:02;98004.47;;;11.23;73.62
83559;BME280;73527;47.882;7.718;2023-11-21T00:29:27;97996.16;;;10.92;75.03
83559;BME280;73527;47.882;7.718;2023-11-21T00:31:54;98015.63;;;11.40;74.46
83559;BME280;73527;47.882;7.718;2023-11-21T00:36:45;98007.56;;;11.27;73.52
83559;BME280;73527;47.882;7.718;2023-11-21T00:39:10;97995.56;;;11.16;74.54
83559;BME280;73527;47.882;7.718;2023-11-21T00:41:37;98015.41;;;11.15;76.00
83559;BME280;73527;47.882;7.718;2023-11-21T00:44:03;98014.75;;;11.07;74.65
83559;BME280;73527;47.882;7.718;2023-11-21T00:46:28;97997.00;;;10.92;75.59
83559;BME280;73527;47.882;7.718;2023-11-21T00:48:54;98022.59;;;11.08;75.38
83559;BME280;73527;47.882;7.718;2023-11-21T00:51:20;98004.03;;;11.07;75.38
83559;BME280;73527;47.882;7.718;2023-11-21T00:53:47;98017.78;;;10.90;75.81
83559;BME280;73527;47.882;7.718;2023-11-21T00:56:13;98012.09;;;11.20;75.27
83559;BME280;73527;47.882;7.718;2023-11-21T00:58:39;98009.38;;;11.00;74.27
83559;BME280;73527;47.882;7.718;2023-11-21T01:01:07;98005.47;;;10.96;75.01
83559;BME280;73527;47.882;7.718;2023-11-21T01:03:33;98013.66;;;10.81;75.61
83559;BME280;73527;47.882;7.718;2023-11-21T01:05:58;97999.63;;;10.73;75.06
83559;BME280;73527;47.882;7.718;2023-11-21T01:08:24;98005.22;;;10.91;75.75
83559;BME280;73527;47.882;7.718;2023-11-21T01:10:49;97998.16;;;10.77;75.65
83559;BME280;73527;47.882;7.718;2023-11-21T01:13:15;98005.00;;;10.86;74.70
83559;BME280;73527;47.882;7.718;2023-11-21T01:15:40;98023.00;;;10.98;74.85
83559;BME280;73527;47.882;7.718;2023-11-21T01:18:07;98014.69;;;10.87;74.95
83559;BME280;73527;47.882;7.718;2023-11-21T01:20:34;98013.47;;;10.89;74.39
83559;BME280;73527;47.882;7.718;2023-11-21T01:22:59;98015.16;;;11.10;74.15
83559;BME280;73527;47.882;7.718;2023-11-21T01:25:24;98021.38;;;11.17;73.51
83559;BME280;73527;47.882;7.718;2023-11-21T01:27:51;98030.06;;;11.26;73.51
83559;BME280;73527;47.882;7.718;2023-11-21T01:30:16;98034.16;;;11.09;73.84
83559;BME280;73527;47.882;7.718;2023-11-21T01:32:42;98016.41;;;11.08;72.49
83559;BME280;73527;47.882;7.718;2023-11-21T01:35:08;98031.50;;;11.15;73.43
83559;BME280;73527;47.882;7.718;2023-11-21T01:37:34;98020.38;;;11.38;72.82
83559;BME280;73527;47.882;7.718;2023-11-21T01:40:00;98012.94;;;11.40;71.94
83559;BME280;73527;47.882;7.718;2023-11-21T01:42:26;98017.72;;;11.38;72.27
83559;BME280;73527;47.882;7.718;2023-11-21T01:44:52;98001.78;;;11.23;71.82
83559;BME280;73527;47.882;7.718;2023-11-21T01:47:19;98006.72;;;11.20;72.41
83559;BME280;73527;47.882;7.718;2023-11-21T01:49:46;98005.88;;;11.13;72.15
83559;BME280;73527;47.882;7.718;2023-11-21T01:52:12;98011.22;;;10.99;73.25
83559;BME280;73527;47.882;7.718;2023-11-21T01:54:38;98011.25;;;11.13;72.12
83559;BME280;73527;47.882;7.718;2023-11-21T01:57:05;98002.81;;;11.16;72.31
83559;BME280;73527;47.882;7.718;2023-11-21T01:59:36;98003.03;;;11.21;71.83
83559;BME280;73527;47.882;7.718;2023-11-21T02:02:03;98011.66;;;11.10;72.15
83559;BME280;73527;47.882;7.718;2023-11-21T02:04:31;98006.72;;;11.20;72.11
83559;BME280;73527;47.882;7.718;2023-11-21T02:06:57;98007.38;;;11.35;71.83
83559;BME280;73527;47.882;7.718;2023-11-21T02:09:27;98006.97;;;11.31;71.31
83559;BME280;73527;47.882;7.718;2023-11-21T02:11:53;97992.47;;;11.19;71.98
83559;BME280;73527;47.882;7.718;2023-11-21T02:14:20;98000.91;;;10.96;72.73
83559;BME280;73527;47.882;7.718;2023-11-21T02:16:50;97989.94;;;10.78;72.81
83559;BME280;73527;47.882;7.718;2023-11-21T02:19:19;97992.88;;;11.10;72.12
83559;BME280;73527;47.882;7.718;2023-11-21T02:21:51;97979.81;;;10.74;72.83
83559;BME280;73527;47.882;7.718;2023-11-21T02:24:23;97981.06;;;10.84;72.52
83559;BME280;73527;47.882;7.718;2023-11-21T02:26:49;97990.19;;;11.03;72.25
83559;BME280;73527;47.882;7.718;2023-11-21T02:29:21;97991.03;;;11.10;72.36
83559;BME280;73527;47.882;7.718;2023-11-21T02:31:55;97994.53;;;11.11;72.88
83559;BME280;73527;47.882;7.718;2023-11-21T02:34:22;97979.91;;;11.13;72.44
83559;BME280;73527;47.882;7.718;2023-11-21T02:36:47;97972.28;;;11.23;71.45
83559;BME280;73527;47.882;7.718;2023-11-21T02:39:16;97974.75;;;11.18;72.09
83559;BME280;73527;47.882;7.718;2023-11-21T02:41:43;97977.22;;;11.33;71.47
83559;BME280;73527;47.882;7.718;2023-11-21T02:44:08;97982.19;;;11.36;71.23
83559;BME280;73527;47.882;7.718;2023-11-21T02:46:35;97973.72;;;11.32;71.02
83559;BME280;73527;47.882;7.718;2023-11-21T02:49:01;97976.63;;;11.24;71.28
83559;BME280;73527;47.882;7.718;2023-11-21T02:51:27;97956.41;;;11.22;70.98
83559;BME280;73527;47.882;7.718;2023-11-21T02:53:52;97980.34;;;11.43;70.64
83559;BME280;73527;47.882;7.718;2023-11-21T02:56:18;97978.06;;;11.20;71.58
83559;BME280;73527;47.882;7.718;2023-11-21T02:58:43;97952.91;;;11.21;71.28
83559;BME280;73527;47.882;7.718;2023-11-21T03:01:10;97978.84;;;10.94;72.14
83559;BME280;73527;47.882;7.718;2023-11-21T03:03:37;97984.00;;;10.96;72.68
83559;BME280;73527;47.882;7.718;2023-11-21T03:06:06;97974.53;;;11.20;72.17
83559;BME280;73527;47.882;7.718;2023-11-21T03:08:32;97970.63;;;11.48;70.76
83559;BME280;73527;47.882;7.718;2023-11-21T03:10:57;97971.03;;;11.52;71.15
83559;BME280;73527;47.882;7.718;2023-11-21T03:13:23;97959.69;;;11.11;72.45
83559;BME280;73527;47.882;7.718;2023-11-21T03:15:48;97944.59;;;10.96;72.61
83559;BME280;73527;47.882;7.718;2023-11-21T03:18:13;97941.72;;;10.91;73.09
83559;BME280;73527;47.882;7.718;2023-11-21T03:20:39;97944.16;;;10.93;73.11
83559;BME280;73527;47.882;7.718;2023-11-21T03:23:04;97946.44;;;10.83;73.77
83559;BME280;73527;47.882;7.718;2023-11-21T03:25:30;97948.72;;;10.86;73.13
83559;BME280;73527;47.882;7.718;2023-11-21T03:27:56;97937.28;;;10.58;73.29
83559;BME280;73527;47.882;7.718;2023-11-21T03:30:22;97963.34;;;10.90;72.96
83559;BME280;73527;47.882;7.718;2023-11-21T03:32:47;97968.75;;;11.03;72.28
83559;BME280;73527;47.882;7.718;2023-11-21T03:35:12;97973.09;;;11.24;71.76
83559;BME280;73527;47.882;7.718;2023-11-21T03:37:38;97980.09;;;11.05;72.10
83559;BME280;73527;47.882;7.718;2023-11-21T03:40:07;97977.16;;;10.87;72.96
83559;BME280;73527;47.882;7.718;2023-11-21T03:42:34;97982.94;;;10.90;73.04
83559;BME280;73527;47.882;7.718;2023-11-21T03:44:59;97975.75;;;10.97;72.91
83559;BME280;73527;47.882;7.718;2023-11-21T03:47:27;97961.94;;;11.01;72.47
83559;BME280;73527;47.882;7.718;2023-11-21T03:49:53;97961.47;;;10.77;73.71
83559;BME280;73527;47.882;7.718;2023-11-21T03:52:18;97975.81;;;11.37;71.99
83559;BME280;73527;47.882;7.718;2023-11-21T03:54:43;97987.69;;;10.88;73.14
83559;BME280;73527;47.882;7.718;2023-11-21T03:57:09;97971.84;;;11.20;72.04
83559;BME280;73527;47.882;7.718;2023-11-21T03:59:34;97974.94;;;11.17;72.42
83559;BME280;73527;47.882;7.718;2023-11-21T04:02:00;97968.56;;;11.24;72.23
83559;BME280;73527;47.882;7.718;2023-11-21T04:04:25;97956.56;;;11.01;72.58
83559;BME280;73527;47.882;7.718;2023-11-21T04:06:50;97966.44;;;10.93;73.14
83559;BME280;73527;47.882;7.718;2023-11-21T04:09:17;97975.56;;;11.06;73.31
83559;BME280;73527;47.882;7.718;2023-11-21T04:11:42;97977.84;;;11.02;72.55
83559;BME280;73527;47.882;7.718;2023-11-21T04:14:08;97981.34;;;11.03;72.89
83559;BME280;73527;47.882;7.718;2023-11-21T04:16:34;97981.75;;;11.19;72.26
83559;BME280;73527;47.882;7.718;2023-11-21T04:19:00;97979.47;;;11.10;72.60
83559;BME280;73527;47.882;7.718;2023-11-21T04:21:25;97987.53;;;11.23;72.23
83559;BME280;73527;47.882;7.718;2023-11-21T04:23:51;97980.44;;;10.76;72.90
83559;BME280;73527;47.882;7.718;2023-11-21T04:26:16;97983.22;;;11.09;72.31
83559;BME280;73527;47.882;7.718;2023-11-21T04:28:41;97986.06;;;11.07;72.46
83559;BME280;73527;47.882;7.718;2023-11-21T04:31:07;97996.19;;;11.05;72.67
83559;BME280;73527;47.882;7.718;2023-11-21T04:33:32;97993.75;;;11.30;72.09
83559;BME280;73527;47.882;7.718;2023-11-21T04:35:58;97979.25;;;10.91;72.79
83559;BME280;73527;47.882;7.718;2023-11-21T04:38:23;97974.78;;;11.25;71.45
83559;BME280;73527;47.882;7.718;2023-11-21T04:40:49;97997.44;;;11.03;72.89
83559;BME280;73527;47.882;7.718;2023-11-21T04:43:14;97974.34;;;11.21;72.21
83559;BME280;73527;47.882;7.718;2023-11-21T04:45:39;97983.84;;;11.30;72.05
83559;BME280;73527;47.882;7.718;2023-11-21T04:48:06;98008.59;;;11.26;72.39
83559;BME280;73527;47.882;7.718;2023-11-21T04:50:33;98004.44;;;11.04;73.81
83559;BME280;73527;47.882;7.718;2023-11-21T04:52:58;97997.44;;;11.09;73.58
83559;BME280;73527;47.882;7.718;2023-11-21T04:55:24;97994.91;;;10.88;74.67
83559;BME280;73527;47.882;7.718;2023-11-21T04:57:49;98006.50;;;11.02;74.31
83559;BME280;73527;47.882;7.718;2023-11-21T05:00:15;97992.25;;;11.01;74.05
83559;BME280;73527;47.882;7.718;2023-11-21T05:02:41;97994.13;;;11.07;73.75
83559;BME280;73527;47.882;7.718;2023-11-21T05:05:07;98007.78;;;11.19;74.16
83559;BME280;73527;47.882;7.718;2023-11-21T05:07:35;97993.75;;;11.30;72.83
83559;BME280;73527;47.882;7.718;2023-11-21T05:10:01;97998.91;;;11.31;73.04
83559;BME280;73527;47.882;7.718;2023-11-21T05:12:31;98026.59;;;11.38;72.95
83559;BME280;73527;47.882;7.718;2023-11-21T05:15:07;98030.25;;;11.18;74.44
83559;BME280;73527;47.882;7.718;2023-11-21T05:17:33;98034.22;;;11.41;73.62
83559;BME280;73527;47.882;7.718;2023-11-21T05:19:59;98024.56;;;11.73;72.32
83559;BME280;73527;47.882;7.718;2023-11-21T05:22:29;98036.06;;;11.34;74.31
83559;BME280;73527;47.882;7.718;2023-11-21T05:24:54;98036.31;;;11.79;72.31
83559;BME280;73527;47.882;7.718;2023-11-21T05:27:19;98036.56;;;11.71;72.65
83559;BME280;73527;47.882;7.718;2023-11-21T05:29:44;98043.25;;;11.21;74.54
83559;BME280;73527;47.882;7.718;2023-11-21T05:32:10;98044.13;;;11.41;73.81
83559;BME280;73527;47.882;7.718;2023-11-21T05:34:35;98036.28;;;11.46;73.43
83559;BME280;73527;47.882;7.718;2023-11-21T05:37:01;98043.50;;;11.65;72.96
83559;BME280;73527;47.882;7.718;2023-11-21T05:39:26;98045.16;;;11.60;72.98
83559;BME280;73527;47.882;7.718;2023-11-21T05:41:53;98052.25;;;12.00;71.84
83559;BME280;73527;47.882;7.718;2023-11-21T05:44:19;98059.03;;;12.09;71.90
83559;BME280;73527;47.882;7.718;2023-11-21T05:46:44;98046.84;;;12.20;71.01
83559;BME280;73527;47.882;7.718;2023-11-21T05:49:09;98049.94;;;11.64;72.93
83559;BME280;73527;47.882;7.718;2023-11-21T05:51:35;98069.38;;;11.99;72.29
83559;BME280;73527;47.882;7.718;2023-11-21T05:54:01;98052.59;;;11.51;73.35
83559;BME280;73527;47.882;7.718;2023-11-21T05:56:26;98063.13;;;12.44;70.00
83559;BME280;73527;47.882;7.718;2023-11-21T05:58:52;98067.72;;;12.05;71.84
83559;BME280;73527;47.882;7.718;2023-11-21T06:01:17;98070.41;;;12.05;72.29
83559;BME280;73527;47.882;7.718;2023-11-21T06:03:43;98049.13;;;12.16;70.63
83559;BME280;73527;47.882;7.718;2023-11-21T06:06:08;98074.69;;;12.45;70.46
83559;BME280;73527;47.882;7.718;2023-11-21T06:08:33;98069.75;;;12.42;70.10
83559;BME280;73527;47.882;7.718;2023-11-21T06:10:59;98046.22;;;11.98;70.93
83559;BME280;73527;47.882;7.718;2023-11-21T06:13:24;98070.41;;;12.05;71.75
83559;BME280;73527;47.882;7.718;2023-11-21T06:15:50;98076.78;;;12.36;70.38
83559;BME280;73527;47.882;7.718;2023-11-21T06:18:16;98085.31;;;11.94;72.04
83559;BME280;73527;47.882;7.718;2023-11-21T06:20:45;98079.69;;;12.22;71.15
83559;BME280;73527;47.882;7.718;2023-11-21T06:23:10;98082.59;;;12.20;70.78
83559;BME280;73527;47.882;7.718;2023-11-21T06:25:36;98085.44;;;12.45;70.39
83559;BME280;73527;47.882;7.718;2023-11-21T06:28:03;98087.75;;;12.22;71.53
83559;BME280;73527;47.882;7.718;2023-11-21T06:30:28;98083.22;;;12.02;72.48
83559;BME280;73527;47.882;7.718;2023-11-21T06:32:54;98090.16;;;11.44;74.09
83559;BME280;73527;47.882;7.718;2023-11-21T06:35:20;98092.94;;;11.90;72.49
83559;BME280;73527;47.882;7.718;2023-11-21T06:37:45;98073.50;;;11.88;71.72
83559;BME280;73527;47.882;7.718;2023-11-21T06:40:13;98098.88;;;11.66;72.86
83559;BME280;73527;47.882;7.718;2023-11-21T06:42:40;98086.03;;;11.55;73.09
83559;BME280;73527;47.882;7.718;2023-11-21T06:45:07;98105.94;;;11.93;72.42
83559;BME280;73527;47.882;7.718;2023-11-21T06:47:32;98095.34;;;11.59;73.35
83559;BME280;73527;47.882;7.718;2023-11-21T06:49:58;98106.78;;;12.27;70.66
83559;BME280;73527;47.882;7.718;2023-11-21T06:52:24;98109.06;;;12.23;71.08
83559;BME280;73527;47.882;7.718;2023-11-21T06:54:49;98107.78;;;12.52;70.30
83559;BME280;73527;47.882;7.718;2023-11-21T06:57:15;98105.09;;;12.32;70.47
83559;BME280;73527;47.882;7.718;2023-11-21T06:59:40;98111.50;;;12.25;70.98
83559;BME280;73527;47.882;7.718;2023-11-21T07:02:06;98103.25;;;11.80;72.50
83559;BME280;73527;47.882;7.718;2023-11-21T07:04:32;98100.91;;;11.51;73.26
83559;BME280;73527;47.882;7.718;2023-11-21T07:06:58;98106.81;;;11.20;74.93
83559;BME280;73527;47.882;7.718;2023-11-21T07:09:23;98108.47;;;11.28;74.93
83559;BME280;73527;47.882;7.718;2023-11-21T07:11:49;98120.06;;;11.35;74.54
83559;BME280;73527;47.882;7.718;2023-11-21T07:14:15;98113.38;;;11.11;75.08
83559;BME280;73527;47.882;7.718;2023-11-21T07:16:41;98102.06;;;11.29;74.13
83559;BME280;73527;47.882;7.718;2023-11-21T07:19:07;98081.16;;;11.05;74.60
83559;BME280;73527;47.882;7.718;2023-11-21T07:21:35;98101.25;;;11.22;74.86
83559;BME280;73527;47.882;7.718;2023-11-21T07:24:05;98104.34;;;11.25;74.86
83559;BME280;73527;47.882;7.718;2023-11-21T07:26:31;98121.22;;;11.19;75.90
83559;BME280;73527;47.882;7.718;2023-11-21T07:28:57;98117.75;;;11.19;75.79
83559;BME280;73527;47.882;7.718;2023-11-21T07:31:23;98123.88;;;11.13;75.22
83559;BME280;73527;47.882;7.718;2023-11-21T07:33:49;98086.81;;;11.29;74.09
83559;BME280;73527;47.882;7.718;2023-11-21T07:36:15;98111.41;;;11.46;74.60
83559;BME280;73527;47.882;7.718;2023-11-21T07:38:44;98121.00;;;11.94;73.11
83559;BME280;73527;47.882;7.718;2023-11-21T07:41:10;98111.00;;;11.49;74.12
83559;BME280;73527;47.882;7.718;2023-11-21T07:43:36;98120.13;;;11.61;73.70
83559;BME280;73527;47.882;7.718;2023-11-21T07:46:02;98129.94;;;11.28;75.19
83559;BME280;73527;47.882;7.718;2023-11-21T07:48:32;98121.75;;;11.49;74.69
83559;BME280;73527;47.882;7.718;2023-11-21T07:50:58;98122.63;;;11.69;73.49
83559;BME280;73527;47.882;7.718;2023-11-21T07:53:24;98121.22;;;11.73;73.95
83559;BME280;73527;47.882;7.718;2023-11-21T07:55:51;98127.41;;;11.80;71.93
83559;BME280;73527;47.882;7.718;2023-11-21T07:58:17;98083.00;;;12.11;70.73
83559;BME280;73527;47.882;7.718;2023-11-21T08:00:42;98118.13;;;11.83;72.53
83559;BME280;73527;47.882;7.718;2023-11-21T08:03:08;98116.03;;;12.44;71.42
83559;BME280;73527;47.882;7.718;2023-11-21T08:05:33;98125.59;;;12.14;70.70
83559;BME280;73527;47.882;7.718;2023-11-21T08:07:59;98127.84;;;12.04;71.48
83559;BME280;73527;47.882;7.718;2023-11-21T08:10:24;98126.19;;;12.16;70.78
83559;BME280;73527;47.882;7.718;2023-11-21T08:12:50;98098.31;;;12.23;70.24
83559;BME280;73527;47.882;7.718;2023-11-21T08:15:15;98136.09;;;12.09;71.87
83559;BME280;73527;47.882;7.718;2023-11-21T08:17:41;98134.44;;;12.08;70.49
83559;BME280;73527;47.882;7.718;2023-11-21T08:20:07;98129.72;;;12.16;70.74
83559;BME280;73527;47.882;7.718;2023-11-21T08:22:34;98142.31;;;12.02;70.68
83559;BME280;73527;47.882;7.718;2023-11-21T08:24:59;98141.72;;;12.20;70.14
83559;BME280;73527;47.882;7.718;2023-11-21T08:27:25;98123.69;;;12.21;69.99
83559;BME280;73527;47.882;7.718;2023-11-21T08:29:50;98128.66;;;12.30;69.83
83559;BME280;73527;47.882;7.718;2023-11-21T08:32:17;98142.94;;;12.24;70.72
83559;BME280;73527;47.882;7.718;2023-11-21T08:34:43;98145.00;;;12.48;69.41
83559;BME280;73527;47.882;7.718;2023-11-21T08:37:10;98139.00;;;12.46;69.17
83559;BME280;73527;47.882;7.718;2023-11-21T08:39:36;98136.31;;;12.53;68.31
83559;BME280;73527;47.882;7.718;2023-11-21T08:42:03;98129.28;;;12.32;69.16
83559;BME280;73527;47.882;7.718;2023-11-21T08:44:28;98142.47;;;12.60;69.41
83559;BME280;73527;47.882;7.718;2023-11-21T08:46:55;98144.75;;;12.50;69.19
83559;BME280;73527;47.882;7.718;2023-11-21T08:49:21;98146.44;;;12.38;70.71
83559;BME280;73527;47.882;7.718;2023-11-21T08:51:46;98123.66;;;12.53;69.12
83559;BME280;73527;47.882;7.718;2023-11-21T08:54:12;98150.75;;;12.72;68.59
83559;BME280;73527;47.882;7.718;2023-11-21T08:56:37;98145.97;;;12.74;68.78
83559;BME280;73527;47.882;7.718;2023-11-21T08:59:03;98151.94;;;13.09;67.25
83559;BME280;73527;47.882;7.718;2023-11-21T09:01:31;98116.53;;;13.12;65.92
83559;BME280;73527;47.882;7.718;2023-11-21T09:03:58;98147.47;;;13.72;64.45
83559;BME280;73527;47.882;7.718;2023-11-21T09:06:24;98151.91;;;13.15;66.69
83559;BME280;73527;47.882;7.718;2023-11-21T09:08:49;98161.41;;;13.18;67.29
83559;BME280;73527;47.882;7.718;2023-11-21T09:11:15;98162.69;;;13.15;67.75
83559;BME280;73527;47.882;7.718;2023-11-21T09:13:40;98174.78;;;13.44;66.23
83559;BME280;73527;47.882;7.718;2023-11-21T09:16:05;98169.06;;;13.07;66.52
83559;BME280;73527;47.882;7.718;2023-11-21T09:18:31;98181.91;;;13.12;67.16
83559;BME280;73527;47.882;7.718;2023-11-21T09:20:57;98179.44;;;12.97;67.19
83559;BME280;73527;47.882;7.718;2023-11-21T09:23:22;98175.91;;;13.03;67.08
83559;BME280;73527;47.882;7.718;2023-11-21T09:25:47;98161.84;;;13.08;66.96
83559;BME280;73527;47.882;7.718;2023-11-21T09:28:15;98168.28;;;12.87;66.87
83559;BME280;73527;47.882;7.718;2023-11-21T09:30:40;98180.59;;;13.41;65.21
83559;BME280;73527;47.882;7.718;2023-11-21T09:33:06;98182.00;;;13.50;64.51
83559;BME280;73527;47.882;7.718;2023-11-21T09:35:32;98182.38;;;13.60;64.17
83559;BME280;73527;47.882;7.718;2023-11-21T09:37:57;98178.31;;;13.82;64.18
83559;BME280;73527;47.882;7.718;2023-11-21T09:40:23;98182.47;;;13.78;62.76
83559;BME280;73527;47.882;7.718;2023-11-21T09:42:54;98184.00;;;13.68;61.54
83559;BME280;73527;47.882;7.718;2023-11-21T09:45:25;98185.50;;;13.88;61.08
83559;BME280;73527;47.882;7.718;2023-11-21T09:47:53;98184.66;;;14.26;60.55
83559;BME280;73527;47.882;7.718;2023-11-21T09:50:19;98192.50;;;14.34;60.93
83559;BME280;73527;47.882;7.718;2023-11-21T09:55:25;98192.00;;;14.12;62.58
83559;BME280;73527;47.882;7.718;2023-11-21T09:57:53;98185.44;;;14.01;61.55
83559;BME280;73527;47.882;7.718;2023-11-21T10:00:20;98199.28;;;14.43;60.88
83559;BME280;73527;47.882;7.718;2023-11-21T10:02:49;98190.06;;;14.50;60.68
83559;BME280;73527;47.882;7.718;2023-11-21T10:05:16;98194.38;;;14.27;61.92
83559;BME280;73527;47.882;7.718;2023-11-21T10:07:46;98190.66;;;13.96;62.38
83559;BME280;73527;47.882;7.718;2023-11-21T10:10:13;98196.84;;;14.35;61.03
83559;BME280;73527;47.882;7.718;2023-11-21T10:12:42;98192.38;;;14.47;60.96
83559;BME280;73527;47.882;7.718;2023-11-21T10:15:11;98190.03;;;15.00;60.20
83559;BME280;73527;47.882;7.718;2023-11-21T10:17:41;98201.91;;;15.35;59.78
83559;BME280;73527;47.882;7.718;2023-11-21T10:20:11;98203.41;;;15.31;60.54
83559;BME280;73527;47.882;7.718;2023-11-21T10:22:45;98204.91;;;15.45;59.98
83559;BME280;73527;47.882;7.718;2023-11-21T10:25:12;98202.00;;;15.47;60.17
83559;BME280;73527;47.882;7.718;2023-11-21T10:27:41;98202.44;;;15.62;60.51
83559;BME280;73527;47.882;7.718;2023-11-21T10:30:07;98196.28;;;15.55;60.73
83559;BME280;73527;47.882;7.718;2023-11-21T10:32:40;98208.41;;;15.09;58.34
83559;BME280;73527;47.882;7.718;2023-11-21T10:35:09;98194.78;;;14.80;58.02
83559;BME280;73527;47.882;7.718;2023-11-21T10:37:39;98213.72;;;14.55;59.55
83559;BME280;73527;47.882;7.718;2023-11-21T10:40:07;98210.94;;;14.62;61.30
83559;BME280;73527;47.882;7.718;2023-11-21T10:42:33;98215.13;;;14.26;63.84
83559;BME280;73527;47.882;7.718;2023-11-21T10:44:58;98213.69;;;14.24;64.78
83559;BME280;73527;47.882;7.718;2023-11-21T10:47:24;98187.84;;;13.40;65.17
83559;BME280;73527;47.882;7.718;2023-11-21T10:49:51;98218.53;;;13.00;66.44
83559;BME280;73527;47.882;7.718;2023-11-21T10:52:21;98216.28;;;12.90;66.99
83559;BME280;73527;47.882;7.718;2023-11-21T10:54:47;98218.38;;;12.75;67.97
83559;BME280;73527;47.882;7.718;2023-11-21T10:57:17;98225.63;;;12.55;67.87
83559;BME280;73527;47.882;7.718;2023-11-21T10:59:46;98217.75;;;12.73;67.92
83559;BME280;73527;47.882;7.718;2023-11-21T11:02:23;98230.16;;;12.74;68.79
83559;BME280;73527;47.882;7.718;2023-11-21T11:04:58;98225.50;;;13.47;66.99
83559;BME280;73527;47.882;7.718;2023-11-21T11:07:32;98228.66;;;13.37;67.05
83559;BME280;73527;47.882;7.718;2023-11-21T11:09:59;98225.09;;;13.43;67.67
83559;BME280;73527;47.882;7.718;2023-11-21T11:12:25;98227.00;;;13.30;67.57
83559;BME280;73527;47.882;7.718;2023-11-21T11:14:51;98226.22;;;13.10;68.15
83559;BME280;73527;47.882;7.718;2023-11-21T11:17:18;98225.19;;;12.97;68.35
83559;BME280;73527;47.882;7.718;2023-11-21T11:19:46;98224.56;;;13.15;67.06
83559;BME280;73527;47.882;7.718;2023-11-21T11:28:03;98240.50;;;12.97;68.77
83559;BME280;73527;47.882;7.718;2023-11-21T11:33:39;98241.53;;;12.70;68.92
83559;BME280;73527;47.882;7.718;2023-11-21T11:36:36;98243.78;;;12.99;69.13
83559;BME280;73527;47.882;7.718;2023-11-21T11:39:27;98245.28;;;12.69;70.04
83559;BME280;73527;47.882;7.718;2023-11-21T11:41:56;98241.34;;;12.84;70.58
83559;BME280;73527;47.882;7.718;2023-11-21T11:47:14;98242.97;;;13.25;68.81
83559;BME280;73527;47.882;7.718;2023-11-21T11:50:01;98249.94;;;13.39;67.05
83559;BME280;73527;47.882;7.718;2023-11-21T11:55:10;98234.78;;;13.57;66.19
83559;BME280;73527;47.882;7.718;2023-11-21T11:57:35;98235.06;;;13.81;65.87
83559;BME280;73527;47.882;7.718;2023-11-21T12:00:08;98234.94;;;13.69;66.00
83559;BME280;73527;47.882;7.718;2023-11-21T12:02:38;98232.09;;;13.57;65.88
83559;BME280;73527;47.882;7.718;2023-11-21T12:05:14;98234.44;;;13.85;65.41
83559;BME280;73527;47.882;7.718;2023-11-21T12:10:18;98234.97;;;14.00;66.09
83559;BME280;73527;47.882;7.718;2023-11-21T12:12:49;98244.66;;;14.15;65.77
83559;BME280;73527;47.882;7.718;2023-11-21T12:15:15;98236.75;;;14.20;66.66
83559;BME280;73527;47.882;7.718;2023-11-21T12:17:42;98236.31;;;14.23;66.87
83559;BME280;73527;47.882;7.718;2023-11-21T12:20:09;98203.06;;;14.35;65.45
83559;BME280;73527;47.882;7.718;2023-11-21T12:22:47;98229.00;;;14.61;64.96
83559;BME280;73527;47.882;7.718;2023-11-21T12:25:17;98226.41;;;14.48;64.16
83559;BME280;73527;47.882;7.718;2023-11-21T12:27:49;98220.53;;;14.26;65.23
83559;BME280;73527;47.882;7.718;2023-11-21T12:30:22;98228.59;;;13.95;66.62
83559;BME280;73527;47.882;7.718;2023-11-21T12:32:50;98219.06;;;13.92;68.34
83559;BME280;73527;47.882;7.718;2023-11-21T12:35:26;98222.72;;;14.04;67.42
83559;BME280;73527;47.882;7.718;2023-11-21T12:37:53;98225.84;;;14.01;67.56
83559;BME280;73527;47.882;7.718;2023-11-21T12:40:19;98222.91;;;13.72;68.10
83559;BME280;73527;47.882;7.718;2023-11-21T12:42:46;98238.50;;;13.63;68.96
83559;BME280;73527;47.882;7.718;2023-11-21T12:47:46;98244.22;;;14.18;67.78
83559;BME280;73527;47.882;7.718;2023-11-21T12:50:12;98237.31;;;13.97;67.45
83559;BME280;73527;47.882;7.718;2023-11-21T12:52:46;98259.44;;;13.54;68.95
83559;BME280;73527;47.882;7.718;2023-11-21T12:55:21;98250.75;;;13.46;68.74
83559;BME280;73527;47.882;7.718;2023-11-21T12:57:54;98254.97;;;13.22;70.56
83559;BME280;73527;47.882;7.718;2023-11-21T13:00:28;98250.25;;;13.11;70.86
83559;BME280;73527;47.882;7.718;2023-11-21T13:02:56;98250.53;;;13.54;69.75
83559;BME280;73527;47.882;7.718;2023-11-21T13:07:58;98242.91;;;13.89;67.56
83559;BME280;73527;47.882;7.718;2023-11-21T13:10:25;98248.81;;;14.10;67.54
83559;BME280;73527;47.882;7.718;2023-11-21T13:12:55;98240.56;;;14.05;67.48
83559;BME280;73527;47.882;7.718;2023-11-21T13:15:23;98250.59;;;14.30;66.98
83559;BME280;73527;47.882;7.718;2023-11-21T13:17:50;98249.16;;;14.21;66.72
83559;BME280;73527;47.882;7.718;2023-11-21T13:20:17;98248.91;;;14.29;66.60
83559;BME280;73527;47.882;7.718;2023-11-21T13:22:49;98236.31;;;14.23;66.27
83559;BME280;73527;47.882;7.718;2023-11-21T13:25:16;98247.06;;;14.29;66.41